sensor_id;sensor_type;location;lat;lon;timestamp;temperature;humidity
23769;DHT22;12064;50.890;5.424;2023-04-16T00:03:17;19.40;78.70
23769;DHT22;12064;50.890;5.424;2023-04-16T00:12:07;19.40;78.90
23769;DHT22;12064;50.890;5.424;2023-04-16T00:20:58;19.40;79.10
23769;DHT22;12064;50.890;5.424;2023-04-16T00:29:49;19.40;79.20
23769;DHT22;12064;50.890;5.424;2023-04-16T00:38:40;19.30;79.40
23769;DHT22;12064;50.890;5.424;2023-04-16T00:47:30;19.30;79.40
23769;DHT22;12064;50.890;5.424;2023-04-16T00:56:21;19.30;79.60
23769;DHT22;12064;50.890;5.424;2023-04-16T01:05:13;19.30;79.80
23769;DHT22;12064;50.890;5.424;2023-04-16T01:14:04;19.20;80.10
23769;DHT22;12064;50.890;5.424;2023-04-16T01:22:54;19.20;80.10
23769;DHT22;12064;50.890;5.424;2023-04-16T01:31:45;19.20;80.30
23769;DHT22;12064;50.890;5.424;2023-04-16T01:40:36;19.20;80.40
23769;DHT22;12064;50.890;5.424;2023-04-16T01:49:28;19.20;80.60
23769;DHT22;12064;50.890;5.424;2023-04-16T01:58:18;19.20;80.70
23769;DHT22;12064;50.890;5.424;2023-04-16T02:07:10;19.10;80.80
23769;DHT22;12064;50.890;5.424;2023-04-16T02:16:01;19.10;80.80
23769;DHT22;12064;50.890;5.424;2023-04-16T02:24:51;19.10;81.00
23769;DHT22;12064;50.890;5.424;2023-04-16T02:33:42;19.10;81.00
23769;DHT22;12064;50.890;5.424;2023-04-16T02:42:33;19.10;81.40
23769;DHT22;12064;50.890;5.424;2023-04-16T02:51:24;19.10;81.40
23769;DHT22;12064;50.890;5.424;2023-04-16T03:00:15;19.10;81.40
23769;DHT22;12064;50.890;5.424;2023-04-16T03:09:05;19.10;81.60
23769;DHT22;12064;50.890;5.424;2023-04-16T03:17:56;19.00;81.80
23769;DHT22;12064;50.890;5.424;2023-04-16T03:26:47;19.00;81.80
23769;DHT22;12064;50.890;5.424;2023-04-16T03:35:37;19.00;82.10
23769;DHT22;12064;50.890;5.424;2023-04-16T03:44:28;19.00;83.10
23769;DHT22;12064;50.890;5.424;2023-04-16T03:53:19;19.00;82.50
23769;DHT22;12064;50.890;5.424;2023-04-16T04:02:10;19.00;82.50
23769;DHT22;12064;50.890;5.424;2023-04-16T04:11:00;19.00;82.50
23769;DHT22;12064;50.890;5.424;2023-04-16T04:19:51;18.90;82.30
23769;DHT22;12064;50.890;5.424;2023-04-16T04:28:43;18.90;82.20
23769;DHT22;12064;50.890;5.424;2023-04-16T04:37:33;18.90;82.50
23769;DHT22;12064;50.890;5.424;2023-04-16T04:46:24;18.90;82.50
23769;DHT22;12064;50.890;5.424;2023-04-16T04:55:15;18.90;82.60
23769;DHT22;12064;50.890;5.424;2023-04-16T05:04:05;19.00;82.70
23769;DHT22;12064;50.890;5.424;2023-04-16T05:12:56;18.90;82.80
23769;DHT22;12064;50.890;5.424;2023-04-16T05:21:47;18.90;82.90
23769;DHT22;12064;50.890;5.424;2023-04-16T05:30:37;18.90;82.80
23769;DHT22;12064;50.890;5.424;2023-04-16T05:39:28;18.90;83.00
23769;DHT22;12064;50.890;5.424;2023-04-16T05:48:18;18.90;83.30
23769;DHT22;12064;50.890;5.424;2023-04-16T05:57:09;18.90;83.50
23769;DHT22;12064;50.890;5.424;2023-04-16T06:06:00;18.90;83.80
23769;DHT22;12064;50.890;5.424;2023-04-16T06:14:50;18.90;84.00
23769;DHT22;12064;50.890;5.424;2023-04-16T06:23:41;18.90;83.90
23769;DHT22;12064;50.890;5.424;2023-04-16T06:32:32;18.80;83.60
23769;DHT22;12064;50.890;5.424;2023-04-16T06:41:22;18.80;83.90
23769;DHT22;12064;50.890;5.424;2023-04-16T06:50:15;18.80;84.00
23769;DHT22;12064;50.890;5.424;2023-04-16T06:59:06;18.80;82.70
23769;DHT22;12064;50.890;5.424;2023-04-16T07:07:58;17.40;81.10
23769;DHT22;12064;50.890;5.424;2023-04-16T07:16:48;18.30;81.30
23769;DHT22;12064;50.890;5.424;2023-04-16T07:25:39;18.40;79.80
23769;DHT22;12064;50.890;5.424;2023-04-16T07:34:31;18.40;79.50
23769;DHT22;12064;50.890;5.424;2023-04-16T07:43:21;18.40;79.20
23769;DHT22;12064;50.890;5.424;2023-04-16T07:52:12;18.40;79.10
23769;DHT22;12064;50.890;5.424;2023-04-16T08:01:03;18.40;78.80
23769;DHT22;12064;50.890;5.424;2023-04-16T08:09:53;18.30;79.00
23769;DHT22;12064;50.890;5.424;2023-04-16T08:18:44;18.30;78.40
23769;DHT22;12064;50.890;5.424;2023-04-16T08:27:35;18.30;78.40
23769;DHT22;12064;50.890;5.424;2023-04-16T08:36:25;18.40;78.60
23769;DHT22;12064;50.890;5.424;2023-04-16T08:45:17;18.30;78.10
23769;DHT22;12064;50.890;5.424;2023-04-16T08:54:11;18.30;78.50
23769;DHT22;12064;50.890;5.424;2023-04-16T09:03:04;18.30;79.10
23769;DHT22;12064;50.890;5.424;2023-04-16T09:11:55;18.30;79.10
23769;DHT22;12064;50.890;5.424;2023-04-16T09:20:50;18.30;79.10
23769;DHT22;12064;50.890;5.424;2023-04-16T09:29:41;18.40;79.30
23769;DHT22;12064;50.890;5.424;2023-04-16T09:38:48;18.40;80.60
23769;DHT22;12064;50.890;5.424;2023-04-16T09:47:42;18.30;80.10
23769;DHT22;12064;50.890;5.424;2023-04-16T09:56:42;17.70;82.60
23769;DHT22;12064;50.890;5.424;2023-04-16T10:05:33;18.40;80.30
23769;DHT22;12064;50.890;5.424;2023-04-16T10:14:24;18.50;80.20
23769;DHT22;12064;50.890;5.424;2023-04-16T10:23:19;18.50;80.10
23769;DHT22;12064;50.890;5.424;2023-04-16T10:32:11;18.50;80.10
23769;DHT22;12064;50.890;5.424;2023-04-16T10:41:03;18.50;79.70
23769;DHT22;12064;50.890;5.424;2023-04-16T10:49:54;18.50;79.70
23769;DHT22;12064;50.890;5.424;2023-04-16T10:58:44;18.50;79.60
23769;DHT22;12064;50.890;5.424;2023-04-16T11:07:36;18.50;79.80
23769;DHT22;12064;50.890;5.424;2023-04-16T11:16:30;18.50;79.80
23769;DHT22;12064;50.890;5.424;2023-04-16T11:25:22;18.50;80.10
23769;DHT22;12064;50.890;5.424;2023-04-16T11:34:13;18.50;79.70
23769;DHT22;12064;50.890;5.424;2023-04-16T11:43:15;18.50;79.80
23769;DHT22;12064;50.890;5.424;2023-04-16T11:52:06;18.50;79.70
23769;DHT22;12064;50.890;5.424;2023-04-16T12:00:56;18.50;79.80
23769;DHT22;12064;50.890;5.424;2023-04-16T12:09:49;18.50;80.10
23769;DHT22;12064;50.890;5.424;2023-04-16T12:18:58;18.60;80.10
23769;DHT22;12064;50.890;5.424;2023-04-16T12:27:53;18.60;80.20
23769;DHT22;12064;50.890;5.424;2023-04-16T12:36:46;18.60;80.40
23769;DHT22;12064;50.890;5.424;2023-04-16T12:45:38;18.60;80.40
23769;DHT22;12064;50.890;5.424;2023-04-16T12:54:28;18.60;80.40
23769;DHT22;12064;50.890;5.424;2023-04-16T13:03:20;18.60;80.50
23769;DHT22;12064;50.890;5.424;2023-04-16T13:12:11;18.60;80.60
23769;DHT22;12064;50.890;5.424;2023-04-16T13:21:02;18.60;80.60
23769;DHT22;12064;50.890;5.424;2023-04-16T13:29:52;18.70;80.70
23769;DHT22;12064;50.890;5.424;2023-04-16T13:38:43;18.70;80.70
23769;DHT22;12064;50.890;5.424;2023-04-16T13:47:34;18.60;80.90
23769;DHT22;12064;50.890;5.424;2023-04-16T13:56:25;18.70;80.90
23769;DHT22;12064;50.890;5.424;2023-04-16T14:05:16;18.70;81.10
23769;DHT22;12064;50.890;5.424;2023-04-16T14:14:07;18.60;81.00
23769;DHT22;12064;50.890;5.424;2023-04-16T14:22:58;18.70;81.10
23769;DHT22;12064;50.890;5.424;2023-04-16T14:31:48;18.70;81.00
23769;DHT22;12064;50.890;5.424;2023-04-16T14:40:39;18.60;81.20
23769;DHT22;12064;50.890;5.424;2023-04-16T14:49:30;18.70;81.10
23769;DHT22;12064;50.890;5.424;2023-04-16T14:58:21;18.70;81.20
23769;DHT22;12064;50.890;5.424;2023-04-16T15:07:11;18.70;81.20
23769;DHT22;12064;50.890;5.424;2023-04-16T15:16:03;18.80;81.10
23769;DHT22;12064;50.890;5.424;2023-04-16T15:24:54;18.80;81.20
23769;DHT22;12064;50.890;5.424;2023-04-16T15:33:45;18.70;81.20
23769;DHT22;12064;50.890;5.424;2023-04-16T15:42:37;18.70;81.20
23769;DHT22;12064;50.890;5.424;2023-04-16T15:51:28;18.70;81.40
23769;DHT22;12064;50.890;5.424;2023-04-16T16:00:20;18.80;81.70
23769;DHT22;12064;50.890;5.424;2023-04-16T16:09:11;18.80;81.80
23769;DHT22;12064;50.890;5.424;2023-04-16T16:18:02;18.80;82.10
23769;DHT22;12064;50.890;5.424;2023-04-16T16:26:53;18.80;82.00
23769;DHT22;12064;50.890;5.424;2023-04-16T16:35:43;18.80;81.90
23769;DHT22;12064;50.890;5.424;2023-04-16T16:44:34;18.80;81.90
23769;DHT22;12064;50.890;5.424;2023-04-16T16:53:25;18.80;82.00
23769;DHT22;12064;50.890;5.424;2023-04-16T17:02:16;18.80;82.00
23769;DHT22;12064;50.890;5.424;2023-04-16T17:11:07;18.80;82.00
23769;DHT22;12064;50.890;5.424;2023-04-16T17:19:57;18.80;82.00
23769;DHT22;12064;50.890;5.424;2023-04-16T17:28:50;18.80;82.00
23769;DHT22;12064;50.890;5.424;2023-04-16T17:37:40;18.80;82.00
23769;DHT22;12064;50.890;5.424;2023-04-16T17:46:31;18.80;82.00
23769;DHT22;12064;50.890;5.424;2023-04-16T17:55:22;18.80;82.10
23769;DHT22;12064;50.890;5.424;2023-04-16T18:04:12;18.80;82.10
23769;DHT22;12064;50.890;5.424;2023-04-16T18:13:03;18.80;82.00
23769;DHT22;12064;50.890;5.424;2023-04-16T18:21:54;18.80;82.10
23769;DHT22;12064;50.890;5.424;2023-04-16T18:30:45;18.80;82.00
23769;DHT22;12064;50.890;5.424;2023-04-16T18:39:36;18.80;82.10
23769;DHT22;12064;50.890;5.424;2023-04-16T18:48:26;18.80;82.10
23769;DHT22;12064;50.890;5.424;2023-04-16T18:57:17;18.70;82.20
23769;DHT22;12064;50.890;5.424;2023-04-16T19:06:08;18.70;82.20
23769;DHT22;12064;50.890;5.424;2023-04-16T19:14:58;18.70;82.30
23769;DHT22;12064;50.890;5.424;2023-04-16T19:23:49;18.80;82.30
23769;DHT22;12064;50.890;5.424;2023-04-16T19:32:40;18.80;82.40
23769;DHT22;12064;50.890;5.424;2023-04-16T19:41:30;18.70;82.50
23769;DHT22;12064;50.890;5.424;2023-04-16T19:50:21;18.70;82.40
23769;DHT22;12064;50.890;5.424;2023-04-16T19:59:13;18.70;82.40
23769;DHT22;12064;50.890;5.424;2023-04-16T20:08:03;18.70;82.60
23769;DHT22;12064;50.890;5.424;2023-04-16T20:16:54;18.70;83.00
23769;DHT22;12064;50.890;5.424;2023-04-16T20:25:45;18.70;82.90
23769;DHT22;12064;50.890;5.424;2023-04-16T20:34:35;18.70;82.90
23769;DHT22;12064;50.890;5.424;2023-04-16T20:43:27;18.70;83.00
23769;DHT22;12064;50.890;5.424;2023-04-16T20:52:19;18.70;83.00
23769;DHT22;12064;50.890;5.424;2023-04-16T21:01:10;18.70;83.00
23769;DHT22;12064;50.890;5.424;2023-04-16T21:10:01;18.70;83.20
23769;DHT22;12064;50.890;5.424;2023-04-16T21:18:52;18.60;83.50
23769;DHT22;12064;50.890;5.424;2023-04-16T21:27:43;18.70;83.40
23769;DHT22;12064;50.890;5.424;2023-04-16T21:36:33;18.70;83.30
23769;DHT22;12064;50.890;5.424;2023-04-16T21:45:24;18.70;83.50
23769;DHT22;12064;50.890;5.424;2023-04-16T21:54:15;18.60;83.50
23769;DHT22;12064;50.890;5.424;2023-04-16T22:03:07;18.60;83.50
23769;DHT22;12064;50.890;5.424;2023-04-16T22:12:01;18.70;83.60
23769;DHT22;12064;50.890;5.424;2023-04-16T22:20:52;18.60;83.50
23769;DHT22;12064;50.890;5.424;2023-04-16T22:29:44;18.60;83.50
23769;DHT22;12064;50.890;5.424;2023-04-16T22:38:35;18.60;83.70
23769;DHT22;12064;50.890;5.424;2023-04-16T22:47:28;18.60;83.60
23769;DHT22;12064;50.890;5.424;2023-04-16T22:56:18;18.60;83.70
23769;DHT22;12064;50.890;5.424;2023-04-16T23:05:09;18.60;83.70
23769;DHT22;12064;50.890;5.424;2023-04-16T23:14:01;18.60;83.90
23769;DHT22;12064;50.890;5.424;2023-04-16T23:22:52;18.60;84.00
23769;DHT22;12064;50.890;5.424;2023-04-16T23:31:42;18.60;84.00
23769;DHT22;12064;50.890;5.424;2023-04-16T23:40:33;18.60;84.20
23769;DHT22;12064;50.890;5.424;2023-04-16T23:49:24;18.60;84.20
23769;DHT22;12064;50.890;5.424;2023-04-16T23:58:14;18.60;84.10
